Time;durP1;ratioP1;P1;durP2;ratioP2;P2;SDS_P1;SDS_P2;PMS_P1;PMS_P2;Temp;Humidity;BMP_temperature;BMP_pressure;BME280_temperature;BME280_humidity;BME280_pressure;Samples;Min_cycle;Max_cycle;Signal;HPM_P1;HPM_P2
2022/09/21 00:00:51;;;;;;;;;17.25;17.00;;;;;14.40;58.98;102214.09;4970824;28;45252;-84
2022/09/21 00:03:16;;;;;;;;;19.75;19.00;;;;;14.46;58.92;102234.44;4974529;28;46170;-83
2022/09/21 00:05:42;;;;;;;;;17.00;17.00;;;;;14.39;59.56;102217.66;4966136;28;45276;-84
2022/09/21 00:08:11;;;;;;;;;20.00;17.50;;;;;14.42;59.31;102230.91;4971734;28;45405;-84
2022/09/21 00:10:37;;;;;;;;;22.25;19.75;;;;;14.33;59.59;102212.34;4957263;28;45198;-84
2022/09/21 00:13:04;;;;;;;;;18.50;18.00;;;;;14.38;59.42;102225.56;4976601;28;45408;-85
2022/09/21 00:15:31;;;;;;;;;17.25;17.25;;;;;14.36;59.61;102227.34;4968184;28;45246;-83
2022/09/21 00:18:00;;;;;;;;;19.50;18.75;;;;;14.27;59.54;102215.84;4980850;28;45222;-84
2022/09/21 00:20:26;;;;;;;;;22.75;20.50;;;;;14.29;59.64;102219.38;4964153;28;45258;-84
2022/09/21 00:22:52;;;;;;;;;24.00;20.50;;;;;14.26;59.59;102221.13;4962032;28;47196;-85
2022/09/21 00:25:19;;;;;;;;;22.25;18.00;;;;;14.24;59.87;102217.56;4950671;28;45807;-85
2022/09/21 00:27:47;;;;;;;;;20.00;19.25;;;;;14.24;59.82;102220.22;4948656;28;45311;-85
2022/09/21 00:30:14;;;;;;;;;25.50;22.50;;;;;14.22;60.09;102228.19;4945204;28;45571;-85
2022/09/21 00:32:39;;;;;;;;;18.25;17.50;;;;;14.21;60.35;102228.16;4945332;28;47621;-84
2022/09/21 00:35:06;;;;;;;;;19.75;18.00;;;;;14.18;60.40;102226.38;4944151;28;45430;-84
2022/09/21 00:37:33;;;;;;;;;16.50;15.25;;;;;14.15;60.06;102223.72;4947127;28;45376;-84
2022/09/21 00:39:59;;;;;;;;;20.00;17.75;;;;;14.12;60.18;102227.22;4964234;28;45579;-84
2022/09/21 00:42:31;;;;;;;;;10.75;10.00;;;;;14.08;60.32;102217.47;4947010;28;47019;-84
2022/09/21 00:44:57;;;;;;;;;15.75;15.75;;;;;14.07;60.66;102236.03;4972584;28;45337;-84
2022/09/21 00:47:32;;;;;;;;;19.50;18.50;;;;;13.99;60.35;102229.81;4946615;28;45351;-83
2022/09/21 00:49:59;;;;;;;;;15.00;15.00;;;;;13.98;60.43;102234.22;4946420;28;45327;-84
2022/09/21 00:52:30;;;;;;;;;18.00;16.50;;;;;13.93;60.79;102243.91;4963974;28;45269;-84
2022/09/21 00:55:02;;;;;;;;;21.50;18.75;;;;;13.88;60.75;102246.50;4946922;28;45619;-84
2022/09/21 00:57:30;;;;;;;;;17.00;16.50;;;;;13.86;61.08;102234.13;4946889;28;45283;-84
2022/09/21 01:00:00;;;;;;;;;20.50;19.75;;;;;13.86;61.28;102236.78;4965394;28;45430;-84
2022/09/21 01:02:25;;;;;;;;;20.75;18.75;;;;;13.84;61.55;102241.16;4946222;28;47257;-83
2022/09/21 01:04:55;;;;;;;;;17.25;16.25;;;;;13.77;61.48;102234.09;4950835;28;45196;-84
2022/09/21 01:07:28;;;;;;;;;21.75;21.75;;;;;13.76;62.00;102237.59;4952902;28;45340;-85
2022/09/21 01:09:58;;;;;;;;;23.25;22.25;;;;;13.72;62.08;102234.03;4948543;28;45404;-84
2022/09/21 01:12:48;;;;;;;;;21.00;20.00;;;;;13.71;62.05;102232.25;4949500;28;47801;-84
2022/09/21 01:15:36;;;;;;;;;20.25;17.00;;;;;13.67;61.90;102233.13;4948112;28;46069;-84
2022/09/21 01:18:16;;;;;;;;;20.50;16.00;;;;;13.64;62.21;102230.44;4950017;28;45409;-83
2022/09/21 01:20:57;;;;;;;;;17.75;17.75;;;;;13.61;62.16;102241.03;4960637;28;45473;-84
2022/09/21 01:23:53;;;;;;;;;18.00;18.00;;;;;13.60;62.32;102245.41;4949958;28;46967;-84
2022/09/21 01:26:22;;;;;;;;;16.50;16.50;;;;;13.59;61.99;102235.69;4947535;28;45222;-84
2022/09/21 01:29:20;;;;;;;;;15.75;15.25;;;;;13.58;62.25;102239.22;4973386;28;44705;-84
2022/09/21 01:31:53;;;;;;;;;16.00;16.00;;;;;13.55;62.46;102230.38;4970554;28;45466;-84
2022/09/21 01:34:35;;;;;;;;;20.50;19.00;;;;;13.59;62.02;102240.13;4948696;28;48467;-83
2022/09/21 01:37:09;;;;;;;;;15.50;15.50;;;;;13.54;62.10;102224.19;4951545;28;45207;-83
2022/09/21 01:39:36;;;;;;;;;16.50;16.50;;;;;13.58;62.26;102235.66;4960807;28;44617;-84
2022/09/21 01:42:05;;;;;;;;;20.25;19.25;;;;;13.59;61.98;102234.81;4947824;28;45296;-83
2022/09/21 01:44:34;;;;;;;;;15.25;15.00;;;;;13.57;62.18;102234.78;4967693;28;46349;-83
2022/09/21 01:47:02;;;;;;;;;16.00;15.00;;;;;13.57;62.10;102241.84;4949832;28;45256;-84
2022/09/21 01:49:37;;;;;;;;;14.50;13.25;;;;;13.54;62.11;102242.72;4963364;28;45445;-84
2022/09/21 01:52:16;;;;;;;;;15.75;15.25;;;;;13.49;62.22;102236.50;4949924;28;45416;-84
2022/09/21 01:54:50;;;;;;;;;18.50;16.25;;;;;13.47;62.42;102243.53;4952574;28;46210;-83
2022/09/21 01:57:24;;;;;;;;;16.75;14.25;;;;;13.41;61.93;102241.72;4948973;28;45405;-84
2022/09/21 01:59:56;;;;;;;;;14.50;14.50;;;;;13.41;62.15;102238.19;4973341;28;45274;-83
2022/09/21 02:02:37;;;;;;;;;18.00;16.25;;;;;13.37;62.43;102234.66;4966396;28;45183;-82
2022/09/21 02:05:05;;;;;;;;;15.00;15.00;;;;;13.35;62.16;102240.78;4951190;28;46154;-84
2022/09/21 02:07:34;;;;;;;;;14.75;13.75;;;;;13.30;62.60;102231.94;4965799;28;45249;-83
2022/09/21 02:10:02;;;;;;;;;17.25;15.50;;;;;13.26;62.18;102228.38;4967273;28;45198;-83
2022/09/21 02:12:31;;;;;;;;;16.75;15.00;;;;;13.31;62.64;102234.59;4938093;28;45480;-84
2022/09/21 02:14:56;;;;;;;;;17.50;15.25;;;;;13.22;62.17;102218.59;4949037;28;47276;-83
2022/09/21 02:17:42;;;;;;;;;18.50;15.25;;;;;13.24;62.32;102233.59;4964920;28;45296;-83
2022/09/21 02:20:27;;;;;;;;;11.50;10.00;;;;;13.22;62.40;102232.69;4962382;28;45319;-82
2022/09/21 02:23:13;;;;;;;;;18.25;15.00;;;;;13.18;62.68;102230.91;4957774;28;45228;-83
2022/09/21 02:25:58;;;;;;;;;15.00;12.75;;;;;13.16;62.57;102229.13;4974976;28;45491;-81
2022/09/21 02:28:51;;;;;;;;;13.75;13.25;;;;;13.18;62.87;102228.28;4968440;28;45566;-83
2022/09/21 02:32:04;;;;;;;;;16.25;14.00;;;;;13.18;62.54;102222.97;4967413;28;45263;-83
2022/09/21 02:34:45;;;;;;;;;16.75;14.50;;;;;13.10;62.50;102214.09;4905141;29;45537;-82
2022/09/21 02:37:55;;;;;;;;;17.50;15.25;;;;;13.14;62.68;102231.75;4953905;28;47652;-82
2022/09/21 02:40:26;;;;;;;;;16.50;16.25;;;;;13.12;62.90;102232.59;4967455;28;45324;-84
2022/09/21 02:42:58;;;;;;;;;17.50;17.25;;;;;13.08;62.81;102228.16;4955408;28;45290;-82
2022/09/21 02:45:33;;;;;;;;;16.25;16.25;;;;;13.10;62.90;102227.31;4967691;28;45466;-84
2022/09/21 02:48:27;;;;;;;;;12.75;12.75;;;;;13.08;62.83;102225.53;4965324;28;45476;-83
2022/09/21 02:51:08;;;;;;;;;14.00;13.50;;;;;13.09;63.05;102220.22;4963286;28;45228;-83
2022/09/21 02:53:37;;;;;;;;;15.50;14.50;;;;;13.09;62.82;102228.16;4970705;28;45257;-82
2022/09/21 02:56:06;;;;;;;;;19.00;16.00;;;;;13.05;63.28;102220.22;4949598;28;45539;-82
2022/09/21 02:58:37;;;;;;;;;13.50;13.00;;;;;13.06;62.88;102228.13;4950610;28;47907;-84
2022/09/21 03:01:07;;;;;;;;;17.00;14.50;;;;;13.00;63.33;102220.16;4967877;28;45338;-85
2022/09/21 03:03:33;;;;;;;;;11.00;11.00;;;;;12.98;62.89;102217.47;4975076;28;44866;-83
2022/09/21 03:06:00;;;;;;;;;15.50;12.50;;;;;12.97;63.14;102220.13;4975996;28;44866;-83
2022/09/21 03:08:26;;;;;;;;;17.50;14.75;;;;;12.96;63.60;102223.63;4954892;28;47107;-83
2022/09/21 03:10:53;;;;;;;;;16.75;16.50;;;;;12.89;63.50;102208.59;4947424;28;45279;-83
2022/09/21 03:13:19;;;;;;;;;16.00;14.75;;;;;12.93;63.61;102221.84;4966973;28;45321;-83
2022/09/21 03:15:45;;;;;;;;;18.75;15.00;;;;;12.92;63.34;102219.19;4969696;28;45435;-84
2022/09/21 03:18:11;;;;;;;;;13.25;12.50;;;;;12.94;63.28;102228.03;4968586;28;47408;-84
2022/09/21 03:20:38;;;;;;;;;13.25;13.25;;;;;12.92;63.49;102221.84;4969911;28;45370;-83
2022/09/21 03:23:04;;;;;;;;;12.25;12.25;;;;;12.89;63.41;102219.16;4962164;28;45231;-84
2022/09/21 03:25:30;;;;;;;;;13.00;11.50;;;;;12.91;63.22;102220.03;4965167;28;45303;-83
2022/09/21 03:28:00;;;;;;;;;14.25;10.75;;;;;12.88;63.38;102227.94;4952077;28;47257;-83
2022/09/21 03:30:26;;;;;;;;;11.00;10.75;;;;;12.85;63.42;102226.16;4956652;28;45434;-83
2022/09/21 03:32:52;;;;;;;;;14.50;12.25;;;;;12.82;63.23;102228.75;4967451;28;45398;-83
2022/09/21 03:35:20;;;;;;;;;12.50;12.50;;;;;12.78;63.21;102219.94;4959707;28;45273;-84
2022/09/21 03:37:47;;;;;;;;;16.75;14.00;;;;;12.75;63.20;102230.47;4958686;28;45323;-83
2022/09/21 03:40:12;;;;;;;;;13.50;13.00;;;;;12.68;63.64;102222.44;4952039;28;45449;-84
2022/09/21 03:42:39;;;;;;;;;14.00;13.75;;;;;12.66;63.27;102219.78;4968291;28;45544;-82
2022/09/21 03:45:05;;;;;;;;;12.75;11.25;;;;;12.70;63.39;102223.38;4950658;28;45401;-84
2022/09/21 03:47:31;;;;;;;;;15.25;14.75;;;;;12.70;63.34;102220.72;4965644;28;47525;-84
2022/09/21 03:49:56;;;;;;;;;14.00;12.25;;;;;12.66;63.59;102221.53;4951490;28;45371;-82
2022/09/21 03:52:22;;;;;;;;;14.75;13.50;;;;;12.68;63.33;102219.81;4950033;28;45473;-83
2022/09/21 03:54:47;;;;;;;;;9.00;8.75;;;;;12.67;63.80;102224.22;4951969;28;45455;-83
2022/09/21 03:57:13;;;;;;;;;15.00;13.75;;;;;12.63;63.40;102222.41;4965213;28;46216;-83
2022/09/21 03:59:38;;;;;;;;;17.50;16.00;;;;;12.61;63.37;102215.31;4974535;28;45443;-83
2022/09/21 04:02:04;;;;;;;;;17.25;16.00;;;;;12.62;63.60;102212.72;4967256;28;45586;-83
2022/09/21 04:04:29;;;;;;;;;18.25;14.75;;;;;12.67;63.54;102226.84;4965997;28;45481;-82
2022/09/21 04:06:55;;;;;;;;;16.00;14.25;;;;;12.63;63.74;102211.81;4959288;28;46930;-84
2022/09/21 04:09:22;;;;;;;;;15.50;15.50;;;;;12.59;63.72;102212.69;4964317;28;45362;-83
2022/09/21 04:11:49;;;;;;;;;18.25;16.75;;;;;12.62;63.45;102222.41;4968582;28;45316;-83
2022/09/21 04:14:14;;;;;;;;;17.00;17.00;;;;;12.56;63.57;102207.31;4963152;28;45407;-83
2022/09/21 04:16:40;;;;;;;;;14.25;13.25;;;;;12.62;63.87;102219.75;4967909;28;45234;-84
2022/09/21 04:19:05;;;;;;;;;16.75;16.75;;;;;12.55;63.78;102209.09;4951804;28;45347;-83
2022/09/21 04:21:32;;;;;;;;;16.00;14.25;;;;;12.53;63.70;102208.19;4951648;28;45402;-84
2022/09/21 04:23:57;;;;;;;;;16.00;14.00;;;;;12.50;63.50;102204.63;4964385;28;44870;-84
2022/09/21 04:26:28;;;;;;;;;17.75;15.00;;;;;12.49;64.03;102209.03;4965750;28;46990;-83
2022/09/21 04:28:55;;;;;;;;;15.25;14.50;;;;;12.49;63.72;102211.66;4955045;28;45382;-84
2022/09/21 04:31:22;;;;;;;;;17.25;16.00;;;;;12.44;63.72;102209.84;4961392;28;45282;-83
2022/09/21 04:33:49;;;;;;;;;14.75;13.25;;;;;12.47;63.97;102220.44;4954784;28;45259;-83
2022/09/21 04:36:16;;;;;;;;;16.75;16.50;;;;;12.46;64.19;102221.31;4943865;28;47489;-83
2022/09/21 04:38:42;;;;;;;;;14.25;14.25;;;;;12.44;64.08;102225.69;4982319;28;45266;-83
2022/09/21 04:41:07;;;;;;;;;15.50;13.50;;;;;12.36;64.08;102217.66;4958012;28;45222;-83
2022/09/21 04:43:33;;;;;;;;;15.00;13.25;;;;;12.39;63.96;102225.63;4968268;28;45672;-83
2022/09/21 04:46:13;;;;;;;;;13.75;12.50;;;;;12.38;64.00;102231.78;4959067;28;47371;-83
2022/09/21 04:48:39;;;;;;;;;15.25;14.75;;;;;12.30;63.94;102221.13;4966342;28;45369;-80
2022/09/21 04:51:09;;;;;;;;;16.75;15.75;;;;;12.31;64.14;102222.88;4961068;28;45456;-83
2022/09/21 04:53:36;;;;;;;;;18.25;15.75;;;;;12.32;64.32;102236.97;4960331;28;45556;-83
2022/09/21 04:56:03;;;;;;;;;15.25;13.00;;;;;12.23;64.51;102213.97;4967822;28;45496;-83
2022/09/21 04:58:29;;;;;;;;;14.75;14.00;;;;;12.27;64.60;102231.66;4971411;28;45195;-82
2022/09/21 05:00:55;;;;;;;;;15.00;13.75;;;;;12.23;64.53;102231.56;4966083;28;45271;-81
2022/09/21 05:03:22;;;;;;;;;12.00;12.00;;;;;12.23;64.67;102228.94;4949633;28;45309;-82
2022/09/21 05:05:54;;;;;;;;;15.50;15.50;;;;;12.20;64.75;102229.78;4979989;28;45440;-83
2022/09/21 05:11:11;;;;;;;;;15.00;14.50;;;;;12.08;64.92;102205.84;4948548;28;45299;-83
2022/09/21 05:13:37;;;;;;;;;14.75;14.75;;;;;12.17;64.87;102234.13;4943449;28;45607;-82
2022/09/21 05:16:03;;;;;;;;;18.25;15.50;;;;;12.14;64.94;102235.00;4953149;28;47340;-82
2022/09/21 05:18:29;;;;;;;;;14.75;14.25;;;;;12.05;64.86;102224.28;4953958;28;45305;-84
2022/09/21 05:20:59;;;;;;;;;15.25;14.00;;;;;12.08;65.02;102234.88;4965899;28;45322;-81
2022/09/21 05:23:28;;;;;;;;;12.75;10.00;;;;;12.08;65.47;102238.44;4960293;28;45368;-82
2022/09/21 05:25:54;;;;;;;;;14.00;14.00;;;;;12.02;65.12;102227.75;4965812;28;45319;-83
2022/09/21 05:28:20;;;;;;;;;13.00;11.75;;;;;12.03;65.41;102229.56;4965724;28;45259;-81
2022/09/21 05:30:50;;;;;;;;;12.00;12.00;;;;;11.96;65.32;102221.53;4964996;28;45340;-81
2022/09/21 05:33:19;;;;;;;;;17.25;12.25;;;;;11.98;65.39;102218.03;4965695;28;45456;-82
2022/09/21 05:36:03;;;;;;;;;15.25;14.25;;;;;12.05;65.22;102232.19;4945849;28;47570;-82
2022/09/21 05:38:28;;;;;;;;;14.25;12.25;;;;;12.01;65.10;102225.13;4946641;28;45344;-82
2022/09/21 05:40:54;;;;;;;;;17.00;13.25;;;;;12.04;65.27;102235.72;4948825;28;45259;-81
2022/09/21 05:43:20;;;;;;;;;18.00;16.25;;;;;11.96;65.48;102217.13;4960978;28;45261;-82
2022/09/21 05:45:55;;;;;;;;;18.00;15.25;;;;;12.01;65.27;102227.75;4955587;28;47005;-81
2022/09/21 05:48:38;;;;;;;;;15.25;14.00;;;;;12.00;65.16;102215.41;4963289;28;45694;-83
2022/09/21 05:51:27;;;;;;;;;19.50;18.00;;;;;11.99;65.50;102222.44;4951388;28;45418;-83
2022/09/21 05:54:22;;;;;;;;;14.75;13.25;;;;;11.95;65.50;102210.09;4968694;28;45251;-83
2022/09/21 05:57:10;;;;;;;;;15.25;13.75;;;;;12.01;65.28;102227.75;4958955;28;47245;-82
2022/09/21 05:59:43;;;;;;;;;14.00;12.50;;;;;12.03;65.25;102226.00;4961409;28;45376;-85
2022/09/21 06:02:15;;;;;;;;;16.50;16.00;;;;;12.01;65.48;102217.19;4961239;28;45476;-84
2022/09/21 06:04:40;;;;;;;;;13.50;13.00;;;;;11.97;65.35;102218.88;4955651;28;45546;-85
2022/09/21 06:07:06;;;;;;;;;12.25;11.50;;;;;11.98;65.72;102211.88;4958258;28;47407;-84
2022/09/21 06:09:32;;;;;;;;;14.75;14.75;;;;;12.05;65.44;102219.00;4955692;28;45273;-84
2022/09/21 06:11:58;;;;;;;;;14.75;11.75;;;;;12.07;65.82;102226.06;4954663;28;45376;-86
2022/09/21 06:14:24;;;;;;;;;12.50;11.00;;;;;12.06;65.60;102226.97;4948477;28;45562;-84
2022/09/21 06:16:50;;;;;;;;;14.50;13.00;;;;;12.19;65.56;102235.03;4948679;28;47379;-83
2022/09/21 06:19:16;;;;;;;;;14.75;13.25;;;;;12.20;65.20;102240.34;4955040;28;45470;-81
2022/09/21 06:21:41;;;;;;;;;12.00;12.00;;;;;12.15;65.27;102223.53;4943884;28;45375;-82
2022/09/21 06:24:07;;;;;;;;;15.25;15.25;;;;;12.20;65.38;102231.53;4960049;28;45535;-83
2022/09/21 06:26:33;;;;;;;;;16.00;16.00;;;;;12.24;65.21;102235.97;4948187;28;46596;-82
2022/09/21 06:28:59;;;;;;;;;15.00;14.25;;;;;12.23;65.25;102237.75;4954882;28;45360;-83
2022/09/21 06:31:26;;;;;;;;;16.50;13.75;;;;;12.26;65.27;102236.91;4954727;28;45311;-84
2022/09/21 06:33:51;;;;;;;;;17.00;14.00;;;;;12.22;65.31;102230.69;4948835;28;45640;-84
2022/09/21 06:36:17;;;;;;;;;16.75;14.00;;;;;12.32;65.25;102237.88;4948191;28;45262;-84
2022/09/21 06:38:42;;;;;;;;;11.25;8.00;;;;;12.33;65.18;102226.44;4972013;28;45331;-84
2022/09/21 06:41:08;;;;;;;;;13.75;11.75;;;;;12.35;65.28;102230.00;4960929;28;45693;-83
2022/09/21 06:43:33;;;;;;;;;15.25;14.50;;;;;12.44;65.36;102239.78;4958877;28;45596;-84
2022/09/21 06:46:00;;;;;;;;;19.00;17.00;;;;;12.45;65.59;102230.09;4950088;28;47271;-83
2022/09/21 06:48:28;;;;;;;;;21.00;17.50;;;;;12.55;65.42;102245.19;4961752;28;45401;-84
2022/09/21 06:51:00;;;;;;;;;15.75;15.50;;;;;12.58;65.40;102250.50;4953776;28;45360;-85
2022/09/21 06:53:28;;;;;;;;;16.75;16.75;;;;;12.62;65.44;102249.69;4952379;28;45325;-84
2022/09/21 06:55:59;;;;;;;;;22.75;19.25;;;;;12.60;65.20;102232.06;4974502;28;47435;-84
2022/09/21 06:58:25;;;;;;;;;20.00;17.00;;;;;12.60;65.34;102240.84;4956326;28;45448;-84
2022/09/21 07:00:50;;;;;;;;;18.50;16.50;;;;;12.68;65.17;102248.88;4961023;28;45486;-84
2022/09/21 07:03:15;;;;;;;;;17.75;17.75;;;;;12.70;65.16;102249.78;4968998;28;45471;-84
2022/09/21 07:05:44;;;;;;;;;16.75;15.75;;;;;12.69;65.11;102242.72;4955550;28;45911;-84
2022/09/21 07:08:09;;;;;;;;;16.75;15.75;;;;;12.74;65.10;102252.47;4946686;28;45288;-84
2022/09/21 07:10:35;;;;;;;;;15.50;15.00;;;;;12.76;64.95;102252.50;4964078;28;45184;-85
2022/09/21 07:13:04;;;;;;;;;17.00;14.50;;;;;12.70;64.63;102229.53;4946817;28;45484;-84
2022/09/21 07:15:31;;;;;;;;;15.50;15.50;;;;;12.81;64.87;102250.78;4946067;28;48414;-84
2022/09/21 07:17:56;;;;;;;;;20.25;19.00;;;;;12.80;64.84;102243.72;4946389;28;45280;-84
2022/09/21 07:20:22;;;;;;;;;20.00;17.00;;;;;12.91;64.54;102250.03;4946521;28;45422;-84
2022/09/21 07:22:48;;;;;;;;;22.25;17.75;;;;;12.93;64.61;102245.63;4946126;28;45450;-84
2022/09/21 07:25:13;;;;;;;;;18.00;18.00;;;;;12.99;64.54;102240.44;4950021;28;47459;-83
2022/09/21 07:27:39;;;;;;;;;15.25;13.75;;;;;13.01;64.41;102235.13;4955318;28;45243;-84
2022/09/21 07:30:05;;;;;;;;;18.00;16.75;;;;;13.06;64.50;102244.00;4959417;28;45249;-83
2022/09/21 07:32:31;;;;;;;;;16.25;16.25;;;;;13.10;64.30;102229.06;4946219;28;45987;-84
2022/09/21 07:34:56;;;;;;;;;24.25;21.00;;;;;13.11;64.44;102229.06;4961390;28;46226;-83
2022/09/21 07:37:26;;;;;;;;;17.75;17.00;;;;;13.19;63.97;102237.09;4951328;28;45712;-83
2022/09/21 07:39:52;;;;;;;;;16.25;15.00;;;;;13.27;64.42;102234.53;4946179;28;45384;-83
2022/09/21 07:42:20;;;;;;;;;20.25;19.50;;;;;13.33;63.95;102230.19;4945754;28;45417;-83
2022/09/21 07:44:46;;;;;;;;;23.00;19.00;;;;;13.29;63.96;102219.59;4945574;28;47196;-83
2022/09/21 07:47:12;;;;;;;;;20.75;16.75;;;;;13.40;64.23;102225.84;4945633;28;45473;-84
2022/09/21 07:49:38;;;;;;;;;12.00;12.00;;;;;13.50;63.75;102234.72;4976283;28;45237;-83
2022/09/21 07:52:04;;;;;;;;;15.50;12.75;;;;;13.56;63.78;102224.22;4945823;28;45177;-85
2022/09/21 07:54:30;;;;;;;;;16.75;13.00;;;;;13.62;63.67;102217.19;4949144;28;46918;-86
2022/09/21 07:59:40;;;;;;;;;19.75;16.50;;;;;13.79;63.32;102222.63;4970713;28;45504;-85
2022/09/21 08:02:11;;;;;;;;;15.25;13.50;;;;;13.89;63.33;102227.09;4976056;28;45383;-87
2022/09/21 08:04:41;;;;;;;;;15.25;13.75;;;;;13.95;62.73;102217.41;4988177;28;45517;-86
2022/09/21 08:07:14;;;;;;;;;13.00;13.00;;;;;14.01;62.73;102217.47;4971557;28;45492;-87
2022/09/21 08:09:54;;;;;;;;;18.00;14.50;;;;;14.08;62.76;102219.25;4956753;28;45492;-87
2022/09/21 08:12:28;;;;;;;;;15.00;14.50;;;;;14.19;62.03;102221.97;4952446;28;45699;-87
2022/09/21 08:14:54;;;;;;;;;18.00;15.75;;;;;14.30;62.08;102231.75;4953494;28;47060;-84
2022/09/21 08:17:19;;;;;;;;;14.25;12.25;;;;;14.34;62.05;102224.69;4944885;28;45437;-84
2022/09/21 08:19:45;;;;;;;;;18.25;18.25;;;;;14.40;61.56;102223.81;4963014;28;45419;-84
2022/09/21 08:22:11;;;;;;;;;15.25;15.25;;;;;14.52;61.40;102229.19;4986147;28;45257;-86
2022/09/21 08:24:37;;;;;;;;;22.25;21.25;;;;;14.63;61.11;102237.22;4982466;28;45349;-85
2022/09/21 08:27:06;;;;;;;;;14.75;11.25;;;;;14.65;60.76;102230.13;4983048;28;45191;-87
2022/09/21 08:29:32;;;;;;;;;13.00;13.00;;;;;14.74;60.69;102222.22;4949886;28;45582;-85
2022/09/21 08:32:17;;;;;;;;;17.25;15.00;;;;;14.88;60.74;102222.25;4966490;28;45429;-90
2022/09/21 08:34:45;;;;;;;;;13.00;13.00;;;;;14.99;60.18;102226.72;4940959;28;46952;-86
2022/09/21 08:37:14;;;;;;;;;18.00;14.00;;;;;15.08;60.00;102230.25;4960489;28;45309;-86
2022/09/21 08:39:40;;;;;;;;;18.00;16.00;;;;;15.18;59.64;102229.38;4956210;28;45520;-85
2022/09/21 08:42:17;;;;;;;;;15.75;14.00;;;;;15.25;59.48;102228.50;4965871;28;45398;-85
2022/09/21 08:44:51;;;;;;;;;19.75;19.00;;;;;15.31;59.66;102220.53;4981289;28;47185;-85
2022/09/21 08:47:40;;;;;;;;;16.75;16.00;;;;;15.41;58.99;102219.66;4967561;28;45414;-87
2022/09/21 08:50:21;;;;;;;;;17.75;17.50;;;;;15.47;58.97;102226.72;4963079;28;45253;-85
2022/09/21 08:52:51;;;;;;;;;17.00;14.50;;;;;15.52;58.64;102216.13;4961088;28;45565;-86
2022/09/21 08:55:19;;;;;;;;;17.25;17.00;;;;;15.59;58.48;102217.91;4958014;28;48136;-84
2022/09/21 08:57:44;;;;;;;;;14.50;13.00;;;;;15.68;57.94;102220.53;4972737;28;45357;-85
2022/09/21 09:00:15;;;;;;;;;15.75;12.50;;;;;15.77;57.86;102223.22;4958210;28;45307;-82
2022/09/21 09:03:11;;;;;;;;;17.25;15.25;;;;;15.85;57.77;102208.16;4946011;28;45681;-86
2022/09/21 09:06:21;;;;;;;;;13.25;13.25;;;;;15.96;57.26;102220.50;4947850;28;47322;-87
2022/09/21 09:09:08;;;;;;;;;12.00;12.00;;;;;16.04;57.10;102224.06;4963349;28;45776;-85
2022/09/21 09:11:59;;;;;;;;;14.75;12.50;;;;;16.13;56.77;102233.75;4963387;28;45439;-83
2022/09/21 09:14:39;;;;;;;;;11.00;10.25;;;;;16.25;56.51;102233.72;4960026;28;45438;-88
2022/09/21 09:17:30;;;;;;;;;12.25;11.00;;;;;16.35;56.38;102238.09;4960758;28;46490;-86
2022/09/21 09:20:04;;;;;;;;;11.75;9.50;;;;;16.45;55.83;102233.66;4965673;28;45425;-84
2022/09/21 09:22:35;;;;;;;;;12.50;11.50;;;;;16.54;55.85;102225.63;4953264;28;45465;-86
2022/09/21 09:25:14;;;;;;;;;12.00;9.75;;;;;16.60;55.22;102214.06;4964754;28;45503;-86
2022/09/21 09:27:43;;;;;;;;;13.00;13.00;;;;;16.71;55.08;102213.13;4955314;28;47432;-85
2022/09/21 09:30:20;;;;;;;;;14.00;13.00;;;;;16.79;54.83;102210.47;4963146;28;45251;-87
2022/09/21 09:33:07;;;;;;;;;12.00;11.00;;;;;16.85;54.53;102215.75;4948571;28;45415;-87
2022/09/21 09:35:48;;;;;;;;;11.75;9.00;;;;;16.92;54.19;102211.25;4956224;28;45304;-88
2022/09/21 09:38:45;;;;;;;;;11.75;8.75;;;;;16.97;54.04;102207.69;4967350;28;45278;-88
2022/09/21 09:41:11;;;;;;;;;11.50;10.25;;;;;17.06;53.56;102212.06;4924944;28;45565;-84
2022/09/21 09:43:45;;;;;;;;;13.00;11.25;;;;;17.11;53.47;102210.25;4965276;28;45329;-89
2022/09/21 09:46:13;;;;;;;;;10.00;10.00;;;;;17.22;53.45;102219.94;4964478;28;45277;-87
2022/09/21 09:48:58;;;;;;;;;11.50;9.25;;;;;17.30;52.83;102216.31;4967896;28;45732;-86
2022/09/21 09:51:25;;;;;;;;;10.00;8.25;;;;;17.39;52.14;102213.56;4968107;28;44741;-88
2022/09/21 09:53:57;;;;;;;;;9.00;9.00;;;;;17.47;52.05;102207.31;4948554;28;45541;-87
2022/09/21 09:56:30;;;;;;;;;8.00;8.00;;;;;17.53;51.90;102210.78;4965610;28;45329;-88
2022/09/21 09:58:59;;;;;;;;;11.75;9.75;;;;;17.62;51.75;102213.38;4952531;28;47303;-87
2022/09/21 10:01:45;;;;;;;;;7.25;7.25;;;;;17.73;51.33;102217.72;4947137;28;45528;-90
2022/09/21 10:04:13;;;;;;;;;8.75;7.75;;;;;17.82;51.21;102209.66;4962940;28;45422;-88
2022/09/21 10:06:39;;;;;;;;;6.75;6.75;;;;;17.92;50.67;102207.78;4949594;28;45844;-89
2022/09/21 10:09:32;;;;;;;;;10.00;9.25;;;;;17.99;50.74;102205.06;4957337;28;46771;-90
2022/09/21 10:12:01;;;;;;;;;9.75;9.75;;;;;18.08;49.79;102209.38;4965745;28;45305;-91
2022/09/21 10:14:33;;;;;;;;;9.00;9.00;;;;;18.17;49.74;102201.28;4965048;28;44751;-91
2022/09/21 10:17:15;;;;;;;;;7.00;7.00;;;;;18.23;49.68;102192.31;4949997;28;45487;-90
2022/09/21 10:19:48;;;;;;;;;10.75;9.25;;;;;18.28;49.64;102191.38;4962658;28;45437;-90
2022/09/21 10:22:34;;;;;;;;;6.00;6.00;;;;;18.38;49.22;102191.25;4963644;28;45448;-90
2022/09/21 10:25:04;;;;;;;;;9.50;9.25;;;;;18.41;48.63;102186.75;4950783;28;45191;-85
2022/09/21 10:27:36;;;;;;;;;8.00;7.00;;;;;18.52;48.92;102197.28;4963383;28;45415;-89
2022/09/21 10:30:04;;;;;;;;;7.67;7.67;;;;;18.66;48.58;102187.31;4950007;28;47121;-84
2022/09/21 10:32:29;;;;;;;;;8.00;8.00;;;;;18.84;48.43;102187.97;4944811;28;45329;-82
2022/09/21 10:35:06;;;;;;;;;7.25;7.25;;;;;18.99;48.07;102187.75;4964514;28;45341;-87
2022/09/21 10:37:40;;;;;;;;;11.50;7.00;;;;;19.10;47.77;102191.13;4961343;28;45741;-87
2022/09/21 10:40:26;;;;;;;;;6.00;6.00;;;;;19.24;47.28;102182.88;4957194;28;47196;-87
2022/09/21 10:42:54;;;;;;;;;6.00;6.00;;;;;19.46;47.15;102177.16;4953052;28;45694;-87
2022/09/21 10:45:22;;;;;;;;;5.33;3.67;;;;;19.76;46.40;102182.00;4955702;28;45344;-86
2022/09/21 10:47:49;;;;;;;;;7.00;6.25;;;;;19.96;45.85;102170.91;4960440;28;45455;-86
2022/09/21 10:50:36;;;;;;;;;5.25;5.25;;;;;20.09;45.30;102176.91;4946707;28;48351;-85
2022/09/21 10:53:08;;;;;;;;;5.33;5.00;;;;;20.24;45.33;102178.38;4962723;28;45259;-86
2022/09/21 10:55:39;;;;;;;;;4.67;4.33;;;;;20.48;44.90;102182.31;4970429;28;45252;-84
2022/09/21 10:58:10;;;;;;;;;6.00;5.33;;;;;20.63;43.83;102181.13;4959549;28;45612;-86
2022/09/21 11:00:44;;;;;;;;;7.33;5.67;;;;;20.78;43.72;102174.53;4949083;28;48040;-88
2022/09/21 11:03:32;;;;;;;;;5.00;4.00;;;;;20.89;43.29;102170.69;4946843;28;45822;-86
2022/09/21 11:06:34;;;;;;;;;7.00;7.00;;;;;20.97;42.74;102172.31;4946284;28;45235;-85
2022/09/21 11:09:25;;;;;;;;;4.33;3.33;;;;;21.03;41.98;102175.72;4934668;28;45423;-85
2022/09/21 11:12:12;;;;;;;;;4.00;4.00;;;;;21.05;42.04;102173.88;4960857;28;45574;-84
2022/09/21 11:14:44;;;;;;;;;9.00;9.00;;;;;20.97;41.40;102167.84;4962201;28;45460;-86
2022/09/21 11:17:35;;;;;;;;;7.33;6.00;;;;;21.03;41.36;102164.13;4960618;28;45294;-85
2022/09/21 11:20:29;;;;;;;;;7.00;4.67;;;;;21.08;41.24;102165.75;4960358;28;45289;-86
2022/09/21 11:23:04;;;;;;;;;4.00;4.00;;;;;21.12;41.10;102167.47;4945670;28;46590;-86
2022/09/21 11:25:59;;;;;;;;;6.00;6.00;;;;;21.10;40.53;102163.94;4960827;28;45298;-86
2022/09/21 11:28:50;;;;;;;;;4.00;4.00;;;;;21.14;40.87;102159.38;4957679;28;45454;-85
2022/09/21 11:31:34;;;;;;;;;4.00;4.00;;;;;21.30;41.11;102147.38;4977012;28;45487;-86
2022/09/21 11:34:13;;;;;;;;;3.67;3.67;;;;;21.54;41.05;102151.25;4970127;28;48615;-89
2022/09/21 11:36:41;;;;;;;;;6.00;5.00;;;;;21.81;40.63;102146.00;4945373;28;45556;-88
2022/09/21 11:39:22;;;;;;;;;3.67;3.67;;;;;22.07;39.93;102136.34;4945988;28;45553;-89